sensor_id;sensor_type;location;lat;lon;timestamp;temperature;humidity
38910;DHT22;24676;51.360;12.354;2023-03-23T00:00:40;13.10;99.90
38910;DHT22;24676;51.360;12.354;2023-03-23T00:03:25;13.00;99.90
38910;DHT22;24676;51.360;12.354;2023-03-23T00:06:10;13.00;99.90
38910;DHT22;24676;51.360;12.354;2023-03-23T00:08:54;13.00;99.90
38910;DHT22;24676;51.360;12.354;2023-03-23T00:11:43;13.00;99.90
38910;DHT22;24676;51.360;12.354;2023-03-23T00:14:27;12.90;99.90
38910;DHT22;24676;51.360;12.354;2023-03-23T00:17:11;12.90;99.90
38910;DHT22;24676;51.360;12.354;2023-03-23T00:19:57;12.90;99.90
38910;DHT22;24676;51.360;12.354;2023-03-23T00:22:41;12.90;99.90
38910;DHT22;24676;51.360;12.354;2023-03-23T00:25:26;12.80;99.90
38910;DHT22;24676;51.360;12.354;2023-03-23T00:28:11;12.80;99.90
38910;DHT22;24676;51.360;12.354;2023-03-23T00:31:01;12.80;99.90
38910;DHT22;24676;51.360;12.354;2023-03-23T00:33:46;12.70;99.90
38910;DHT22;24676;51.360;12.354;2023-03-23T00:36:32;12.70;99.90
38910;DHT22;24676;51.360;12.354;2023-03-23T00:39:17;12.60;99.90
38910;DHT22;24676;51.360;12.354;2023-03-23T00:42:02;12.60;99.90
38910;DHT22;24676;51.360;12.354;2023-03-23T00:44:46;12.60;99.90
38910;DHT22;24676;51.360;12.354;2023-03-23T00:47:31;12.60;99.90
38910;DHT22;24676;51.360;12.354;2023-03-23T00:50:15;12.60;99.90
38910;DHT22;24676;51.360;12.354;2023-03-23T00:53:01;12.60;99.90
38910;DHT22;24676;51.360;12.354;2023-03-23T00:55:47;12.70;99.90
38910;DHT22;24676;51.360;12.354;2023-03-23T00:58:31;12.70;99.90
38910;DHT22;24676;51.360;12.354;2023-03-23T01:01:16;12.70;99.90
38910;DHT22;24676;51.360;12.354;2023-03-23T01:04:01;12.80;99.90
38910;DHT22;24676;51.360;12.354;2023-03-23T01:06:50;12.70;99.90
38910;DHT22;24676;51.360;12.354;2023-03-23T01:09:35;12.70;99.90
38910;DHT22;24676;51.360;12.354;2023-03-23T01:12:20;12.70;99.90
38910;DHT22;24676;51.360;12.354;2023-03-23T01:15:04;12.70;99.90
38910;DHT22;24676;51.360;12.354;2023-03-23T01:17:48;12.70;99.90
38910;DHT22;24676;51.360;12.354;2023-03-23T01:20:34;12.60;99.90
38910;DHT22;24676;51.360;12.354;2023-03-23T01:23:19;12.60;99.90
38910;DHT22;24676;51.360;12.354;2023-03-23T01:26:29;12.50;99.90
38910;DHT22;24676;51.360;12.354;2023-03-23T01:29:12;12.50;99.90
38910;DHT22;24676;51.360;12.354;2023-03-23T01:31:58;12.40;99.90
38910;DHT22;24676;51.360;12.354;2023-03-23T01:34:42;12.50;99.90
38910;DHT22;24676;51.360;12.354;2023-03-23T01:37:26;12.50;99.90
38910;DHT22;24676;51.360;12.354;2023-03-23T01:40:11;12.50;99.90
38910;DHT22;24676;51.360;12.354;2023-03-23T01:42:58;12.60;99.90
38910;DHT22;24676;51.360;12.354;2023-03-23T01:45:42;12.50;99.90
38910;DHT22;24676;51.360;12.354;2023-03-23T01:48:31;12.60;99.90
38910;DHT22;24676;51.360;12.354;2023-03-23T01:51:18;12.50;99.90
38910;DHT22;24676;51.360;12.354;2023-03-23T01:54:05;12.50;99.90
38910;DHT22;24676;51.360;12.354;2023-03-23T01:56:54;12.50;99.90
38910;DHT22;24676;51.360;12.354;2023-03-23T01:59:42;12.50;99.90
38910;DHT22;24676;51.360;12.354;2023-03-23T02:02:29;12.60;99.90
38910;DHT22;24676;51.360;12.354;2023-03-23T02:05:19;12.60;99.90
38910;DHT22;24676;51.360;12.354;2023-03-23T02:08:06;12.60;99.90
38910;DHT22;24676;51.360;12.354;2023-03-23T02:10:52;12.60;99.90
38910;DHT22;24676;51.360;12.354;2023-03-23T02:13:37;12.60;99.90
38910;DHT22;24676;51.360;12.354;2023-03-23T02:16:25;12.60;99.90
38910;DHT22;24676;51.360;12.354;2023-03-23T02:31:37;12.60;99.90
38910;DHT22;24676;51.360;12.354;2023-03-23T02:34:29;12.60;99.90
38910;DHT22;24676;51.360;12.354;2023-03-23T02:40:09;12.70;99.90
38910;DHT22;24676;51.360;12.354;2023-03-23T02:42:57;12.70;99.80
38910;DHT22;24676;51.360;12.354;2023-03-23T02:45:44;12.70;99.80
38910;DHT22;24676;51.360;12.354;2023-03-23T02:48:30;12.70;99.30
38910;DHT22;24676;51.360;12.354;2023-03-23T02:51:15;12.80;98.80
38910;DHT22;24676;51.360;12.354;2023-03-23T02:54:01;12.80;98.60
38910;DHT22;24676;51.360;12.354;2023-03-23T02:56:45;12.80;97.70
38910;DHT22;24676;51.360;12.354;2023-03-23T02:59:30;12.90;97.30
38910;DHT22;24676;51.360;12.354;2023-03-23T03:02:21;13.00;96.60
38910;DHT22;24676;51.360;12.354;2023-03-23T03:08:36;13.10;96.90
38910;DHT22;24676;51.360;12.354;2023-03-23T03:11:24;13.10;96.70
38910;DHT22;24676;51.360;12.354;2023-03-23T03:14:21;13.10;95.90
38910;DHT22;24676;51.360;12.354;2023-03-23T03:17:24;13.20;96.40
38910;DHT22;24676;51.360;12.354;2023-03-23T03:20:09;13.20;95.80
38910;DHT22;24676;51.360;12.354;2023-03-23T03:22:55;13.20;96.10
38910;DHT22;24676;51.360;12.354;2023-03-23T03:25:42;13.20;95.90
38910;DHT22;24676;51.360;12.354;2023-03-23T03:28:32;13.20;95.80
38910;DHT22;24676;51.360;12.354;2023-03-23T03:31:20;13.20;95.90
38910;DHT22;24676;51.360;12.354;2023-03-23T03:34:06;13.20;95.40
38910;DHT22;24676;51.360;12.354;2023-03-23T03:36:53;13.20;95.50
38910;DHT22;24676;51.360;12.354;2023-03-23T03:39:38;13.20;95.50
38910;DHT22;24676;51.360;12.354;2023-03-23T03:42:22;13.30;95.20
38910;DHT22;24676;51.360;12.354;2023-03-23T03:45:10;13.30;95.60
38910;DHT22;24676;51.360;12.354;2023-03-23T03:47:56;13.30;96.40
38910;DHT22;24676;51.360;12.354;2023-03-23T03:50:40;13.30;96.00
38910;DHT22;24676;51.360;12.354;2023-03-23T03:53:24;13.30;95.60
38910;DHT22;24676;51.360;12.354;2023-03-23T03:56:08;13.30;95.90
38910;DHT22;24676;51.360;12.354;2023-03-23T03:58:53;13.30;96.10
38910;DHT22;24676;51.360;12.354;2023-03-23T04:01:38;13.30;96.10
38910;DHT22;24676;51.360;12.354;2023-03-23T04:04:22;13.30;96.00
38910;DHT22;24676;51.360;12.354;2023-03-23T04:07:07;13.20;96.10
38910;DHT22;24676;51.360;12.354;2023-03-23T04:09:54;13.20;96.70
38910;DHT22;24676;51.360;12.354;2023-03-23T04:12:39;13.20;96.50
38910;DHT22;24676;51.360;12.354;2023-03-23T04:15:23;13.10;97.10
38910;DHT22;24676;51.360;12.354;2023-03-23T04:18:08;13.10;97.70
38910;DHT22;24676;51.360;12.354;2023-03-23T04:20:52;13.10;97.80
38910;DHT22;24676;51.360;12.354;2023-03-23T04:23:37;13.10;97.90
38910;DHT22;24676;51.360;12.354;2023-03-23T04:26:22;13.20;97.90
38910;DHT22;24676;51.360;12.354;2023-03-23T04:29:06;13.20;97.80
38910;DHT22;24676;51.360;12.354;2023-03-23T04:31:50;13.20;98.30
38910;DHT22;24676;51.360;12.354;2023-03-23T04:34:36;13.20;98.50
38910;DHT22;24676;51.360;12.354;2023-03-23T04:37:20;13.10;98.50
38910;DHT22;24676;51.360;12.354;2023-03-23T04:40:10;13.10;98.80
38910;DHT22;24676;51.360;12.354;2023-03-23T04:42:57;13.10;98.80
38910;DHT22;24676;51.360;12.354;2023-03-23T04:45:42;13.10;98.80
38910;DHT22;24676;51.360;12.354;2023-03-23T04:48:30;13.10;99.00
38910;DHT22;24676;51.360;12.354;2023-03-23T04:51:16;13.10;99.10
38910;DHT22;24676;51.360;12.354;2023-03-23T04:54:01;13.00;99.50
38910;DHT22;24676;51.360;12.354;2023-03-23T04:56:45;13.10;99.60
38910;DHT22;24676;51.360;12.354;2023-03-23T04:59:29;13.10;99.70
38910;DHT22;24676;51.360;12.354;2023-03-23T05:02:14;13.00;99.90
38910;DHT22;24676;51.360;12.354;2023-03-23T05:05:01;13.00;99.90
38910;DHT22;24676;51.360;12.354;2023-03-23T05:07:45;12.90;99.90
38910;DHT22;24676;51.360;12.354;2023-03-23T05:10:30;12.80;99.90
38910;DHT22;24676;51.360;12.354;2023-03-23T05:13:14;12.70;99.90
38910;DHT22;24676;51.360;12.354;2023-03-23T05:16:02;12.70;99.90
38910;DHT22;24676;51.360;12.354;2023-03-23T05:18:46;12.70;99.90
38910;DHT22;24676;51.360;12.354;2023-03-23T05:21:32;12.70;99.90
38910;DHT22;24676;51.360;12.354;2023-03-23T05:24:16;12.70;99.90
38910;DHT22;24676;51.360;12.354;2023-03-23T05:27:01;12.80;99.90
38910;DHT22;24676;51.360;12.354;2023-03-23T05:29:46;12.80;99.90
38910;DHT22;24676;51.360;12.354;2023-03-23T05:32:33;12.90;99.90
38910;DHT22;24676;51.360;12.354;2023-03-23T05:35:18;12.90;99.90
38910;DHT22;24676;51.360;12.354;2023-03-23T05:38:03;12.90;99.90
38910;DHT22;24676;51.360;12.354;2023-03-23T05:40:48;12.80;99.90
38910;DHT22;24676;51.360;12.354;2023-03-23T05:43:32;12.70;99.90
38910;DHT22;24676;51.360;12.354;2023-03-23T05:46:16;12.70;99.90
38910;DHT22;24676;51.360;12.354;2023-03-23T05:49:02;12.80;99.90
38910;DHT22;24676;51.360;12.354;2023-03-23T05:51:46;12.90;99.90
38910;DHT22;24676;51.360;12.354;2023-03-23T05:54:31;12.90;99.90
38910;DHT22;24676;51.360;12.354;2023-03-23T05:57:15;13.00;99.90
38910;DHT22;24676;51.360;12.354;2023-03-23T05:59:59;13.10;99.90
38910;DHT22;24676;51.360;12.354;2023-03-23T06:02:43;13.10;99.90
38910;DHT22;24676;51.360;12.354;2023-03-23T06:05:28;13.10;99.90
38910;DHT22;24676;51.360;12.354;2023-03-23T06:08:12;13.10;99.90
38910;DHT22;24676;51.360;12.354;2023-03-23T06:10:57;13.00;99.90
38910;DHT22;24676;51.360;12.354;2023-03-23T06:13:42;12.90;99.90
38910;DHT22;24676;51.360;12.354;2023-03-23T06:16:27;12.70;99.90
38910;DHT22;24676;51.360;12.354;2023-03-23T06:19:11;12.50;99.90
38910;DHT22;24676;51.360;12.354;2023-03-23T06:21:56;12.50;99.90
38910;DHT22;24676;51.360;12.354;2023-03-23T06:24:40;12.40;99.90
38910;DHT22;24676;51.360;12.354;2023-03-23T06:27:25;12.40;99.90
38910;DHT22;24676;51.360;12.354;2023-03-23T06:30:10;12.30;99.90
38910;DHT22;24676;51.360;12.354;2023-03-23T06:32:56;12.30;99.90
38910;DHT22;24676;51.360;12.354;2023-03-23T06:35:41;12.20;99.90
38910;DHT22;24676;51.360;12.354;2023-03-23T06:38:25;12.10;99.90
38910;DHT22;24676;51.360;12.354;2023-03-23T06:41:10;12.00;99.90
38910;DHT22;24676;51.360;12.354;2023-03-23T06:43:55;12.00;99.90
38910;DHT22;24676;51.360;12.354;2023-03-23T06:46:41;12.00;99.90
38910;DHT22;24676;51.360;12.354;2023-03-23T06:49:26;12.00;99.90
38910;DHT22;24676;51.360;12.354;2023-03-23T06:52:10;11.90;99.90
38910;DHT22;24676;51.360;12.354;2023-03-23T06:54:54;11.90;99.90
38910;DHT22;24676;51.360;12.354;2023-03-23T06:57:39;11.90;99.90
38910;DHT22;24676;51.360;12.354;2023-03-23T07:00:24;11.90;99.90
38910;DHT22;24676;51.360;12.354;2023-03-23T07:03:09;11.90;99.90
38910;DHT22;24676;51.360;12.354;2023-03-23T07:05:54;11.90;99.90
38910;DHT22;24676;51.360;12.354;2023-03-23T07:08:39;11.90;99.90
38910;DHT22;24676;51.360;12.354;2023-03-23T07:11:23;11.90;99.90
38910;DHT22;24676;51.360;12.354;2023-03-23T07:14:08;12.00;99.90
38910;DHT22;24676;51.360;12.354;2023-03-23T07:16:53;12.00;99.90
38910;DHT22;24676;51.360;12.354;2023-03-23T07:19:37;12.10;99.90
38910;DHT22;24676;51.360;12.354;2023-03-23T07:22:21;12.10;99.90
38910;DHT22;24676;51.360;12.354;2023-03-23T07:25:06;12.20;99.90
38910;DHT22;24676;51.360;12.354;2023-03-23T07:27:50;12.30;99.90
38910;DHT22;24676;51.360;12.354;2023-03-23T07:30:35;12.40;99.90
38910;DHT22;24676;51.360;12.354;2023-03-23T07:33:19;12.50;99.90
38910;DHT22;24676;51.360;12.354;2023-03-23T07:36:04;12.50;99.90
38910;DHT22;24676;51.360;12.354;2023-03-23T07:38:49;12.60;99.90
38910;DHT22;24676;51.360;12.354;2023-03-23T07:41:33;12.60;99.90
38910;DHT22;24676;51.360;12.354;2023-03-23T07:44:18;12.70;99.90
38910;DHT22;24676;51.360;12.354;2023-03-23T07:47:02;12.70;99.90
38910;DHT22;24676;51.360;12.354;2023-03-23T07:49:46;12.80;99.90
38910;DHT22;24676;51.360;12.354;2023-03-23T07:52:30;12.90;99.90
38910;DHT22;24676;51.360;12.354;2023-03-23T07:55:15;12.90;99.90
38910;DHT22;24676;51.360;12.354;2023-03-23T07:58:01;13.00;99.90
38910;DHT22;24676;51.360;12.354;2023-03-23T08:00:46;13.00;99.90
38910;DHT22;24676;51.360;12.354;2023-03-23T08:03:32;13.10;99.90
38910;DHT22;24676;51.360;12.354;2023-03-23T08:06:17;13.20;99.90
38910;DHT22;24676;51.360;12.354;2023-03-23T08:09:02;13.30;99.90
38910;DHT22;24676;51.360;12.354;2023-03-23T08:11:51;13.30;99.90
38910;DHT22;24676;51.360;12.354;2023-03-23T08:14:35;13.30;99.90
38910;DHT22;24676;51.360;12.354;2023-03-23T08:17:20;13.40;99.90
38910;DHT22;24676;51.360;12.354;2023-03-23T08:20:05;13.40;99.90
38910;DHT22;24676;51.360;12.354;2023-03-23T08:22:56;13.40;99.90
38910;DHT22;24676;51.360;12.354;2023-03-23T08:25:41;13.40;99.90
38910;DHT22;24676;51.360;12.354;2023-03-23T08:28:27;13.30;99.90
38910;DHT22;24676;51.360;12.354;2023-03-23T08:31:13;13.30;99.90
38910;DHT22;24676;51.360;12.354;2023-03-23T08:33:58;13.10;99.90
38910;DHT22;24676;51.360;12.354;2023-03-23T08:36:42;12.90;99.90
38910;DHT22;24676;51.360;12.354;2023-03-23T08:39:28;12.80;99.90
38910;DHT22;24676;51.360;12.354;2023-03-23T08:42:13;12.90;99.90
38910;DHT22;24676;51.360;12.354;2023-03-23T08:44:57;13.10;99.90
38910;DHT22;24676;51.360;12.354;2023-03-23T08:47:42;13.20;99.90
38910;DHT22;24676;51.360;12.354;2023-03-23T08:50:28;13.40;99.90
38910;DHT22;24676;51.360;12.354;2023-03-23T08:53:14;13.80;99.90
38910;DHT22;24676;51.360;12.354;2023-03-23T08:56:07;14.50;99.90
38910;DHT22;24676;51.360;12.354;2023-03-23T08:58:52;15.20;99.90
38910;DHT22;24676;51.360;12.354;2023-03-23T09:01:37;15.60;99.90
38910;DHT22;24676;51.360;12.354;2023-03-23T09:04:21;15.90;99.90
38910;DHT22;24676;51.360;12.354;2023-03-23T09:07:05;16.30;99.90
38910;DHT22;24676;51.360;12.354;2023-03-23T09:09:51;16.40;99.90
38910;DHT22;24676;51.360;12.354;2023-03-23T09:12:36;16.50;99.90
38910;DHT22;24676;51.360;12.354;2023-03-23T09:15:21;16.50;99.90
38910;DHT22;24676;51.360;12.354;2023-03-23T09:18:06;16.60;99.90
38910;DHT22;24676;51.360;12.354;2023-03-23T09:20:51;16.60;99.90
38910;DHT22;24676;51.360;12.354;2023-03-23T09:23:35;16.90;99.90
38910;DHT22;24676;51.360;12.354;2023-03-23T09:26:19;17.00;99.90
38910;DHT22;24676;51.360;12.354;2023-03-23T09:29:03;17.10;99.00
38910;DHT22;24676;51.360;12.354;2023-03-23T09:31:48;17.10;98.60
38910;DHT22;24676;51.360;12.354;2023-03-23T09:34:32;17.00;99.50
38910;DHT22;24676;51.360;12.354;2023-03-23T09:37:19;16.70;99.90
38910;DHT22;24676;51.360;12.354;2023-03-23T09:40:06;16.70;99.90
38910;DHT22;24676;51.360;12.354;2023-03-23T09:46:13;16.60;99.90
38910;DHT22;24676;51.360;12.354;2023-03-23T09:49:17;16.70;99.90
38910;DHT22;24676;51.360;12.354;2023-03-23T09:52:05;16.70;99.70
38910;DHT22;24676;51.360;12.354;2023-03-23T09:54:53;16.70;99.90
38910;DHT22;24676;51.360;12.354;2023-03-23T09:57:47;16.90;98.90
38910;DHT22;24676;51.360;12.354;2023-03-23T10:00:37;17.00;96.40
38910;DHT22;24676;51.360;12.354;2023-03-23T10:03:26;16.90;96.10
38910;DHT22;24676;51.360;12.354;2023-03-23T10:06:14;17.00;97.50
38910;DHT22;24676;51.360;12.354;2023-03-23T10:09:03;16.80;98.20
38910;DHT22;24676;51.360;12.354;2023-03-23T10:12:02;16.80;97.60
38910;DHT22;24676;51.360;12.354;2023-03-23T10:18:00;16.90;96.80
38910;DHT22;24676;51.360;12.354;2023-03-23T10:20:53;16.90;93.20
38910;DHT22;24676;51.360;12.354;2023-03-23T10:23:51;16.90;91.60
38910;DHT22;24676;51.360;12.354;2023-03-23T10:29:30;17.00;91.20
38910;DHT22;24676;51.360;12.354;2023-03-23T10:32:22;16.90;90.40
38910;DHT22;24676;51.360;12.354;2023-03-23T10:35:12;16.90;90.10
38910;DHT22;24676;51.360;12.354;2023-03-23T10:38:09;17.10;89.20
38910;DHT22;24676;51.360;12.354;2023-03-23T10:41:04;17.30;84.40
38910;DHT22;24676;51.360;12.354;2023-03-23T10:43:49;17.20;83.30
38910;DHT22;24676;51.360;12.354;2023-03-23T10:46:57;17.20;82.20
38910;DHT22;24676;51.360;12.354;2023-03-23T10:49:53;17.00;82.00
38910;DHT22;24676;51.360;12.354;2023-03-23T10:52:41;16.90;83.60
38910;DHT22;24676;51.360;12.354;2023-03-23T10:55:37;16.80;82.30
38910;DHT22;24676;51.360;12.354;2023-03-23T10:58:28;16.80;84.60
38910;DHT22;24676;51.360;12.354;2023-03-23T11:01:13;16.80;85.60
38910;DHT22;24676;51.360;12.354;2023-03-23T11:03:57;16.60;77.80
38910;DHT22;24676;51.360;12.354;2023-03-23T11:06:46;16.50;75.20
38910;DHT22;24676;51.360;12.354;2023-03-23T11:09:37;16.60;77.20
38910;DHT22;24676;51.360;12.354;2023-03-23T11:12:21;16.60;75.50
38910;DHT22;24676;51.360;12.354;2023-03-23T11:15:29;16.60;74.80
38910;DHT22;24676;51.360;12.354;2023-03-23T11:21:12;16.70;73.90
38910;DHT22;24676;51.360;12.354;2023-03-23T11:23:59;16.70;70.90
38910;DHT22;24676;51.360;12.354;2023-03-23T11:26:45;16.70;72.40
38910;DHT22;24676;51.360;12.354;2023-03-23T11:29:30;16.60;73.40
38910;DHT22;24676;51.360;12.354;2023-03-23T11:32:15;16.50;74.50
38910;DHT22;24676;51.360;12.354;2023-03-23T11:35:03;16.50;75.90
38910;DHT22;24676;51.360;12.354;2023-03-23T11:37:56;16.30;77.10
38910;DHT22;24676;51.360;12.354;2023-03-23T11:40:47;16.30;78.80
38910;DHT22;24676;51.360;12.354;2023-03-23T11:43:38;16.30;79.30
38910;DHT22;24676;51.360;12.354;2023-03-23T11:47:13;16.20;80.90
38910;DHT22;24676;51.360;12.354;2023-03-23T11:52:42;16.10;83.00
38910;DHT22;24676;51.360;12.354;2023-03-23T11:55:35;16.10;83.40
38910;DHT22;24676;51.360;12.354;2023-03-23T11:58:21;16.00;85.90
38910;DHT22;24676;51.360;12.354;2023-03-23T12:01:29;16.10;85.30
38910;DHT22;24676;51.360;12.354;2023-03-23T12:07:27;16.40;85.50
38910;DHT22;24676;51.360;12.354;2023-03-23T12:10:34;16.50;85.30
38910;DHT22;24676;51.360;12.354;2023-03-23T12:13:56;16.70;84.60
38910;DHT22;24676;51.360;12.354;2023-03-23T12:28:32;16.90;81.30
38910;DHT22;24676;51.360;12.354;2023-03-23T12:34:53;16.80;82.40
38910;DHT22;24676;51.360;12.354;2023-03-23T12:41:32;16.90;83.60
38910;DHT22;24676;51.360;12.354;2023-03-23T12:44:25;17.20;81.80
38910;DHT22;24676;51.360;12.354;2023-03-23T12:50:23;17.30;78.40
38910;DHT22;24676;51.360;12.354;2023-03-23T12:53:22;17.50;74.50
38910;DHT22;24676;51.360;12.354;2023-03-23T12:56:27;17.70;74.50
38910;DHT22;24676;51.360;12.354;2023-03-23T12:59:52;18.10;72.40
38910;DHT22;24676;51.360;12.354;2023-03-23T13:02:40;18.30;68.90
38910;DHT22;24676;51.360;12.354;2023-03-23T13:05:32;18.30;66.00
38910;DHT22;24676;51.360;12.354;2023-03-23T13:08:25;18.20;64.00
38910;DHT22;24676;51.360;12.354;2023-03-23T13:11:20;18.00;64.80
38910;DHT22;24676;51.360;12.354;2023-03-23T13:17:58;17.40;65.20
38910;DHT22;24676;51.360;12.354;2023-03-23T13:24:17;17.50;67.80
38910;DHT22;24676;51.360;12.354;2023-03-23T13:27:04;17.30;66.90
38910;DHT22;24676;51.360;12.354;2023-03-23T13:29:50;17.10;68.40
38910;DHT22;24676;51.360;12.354;2023-03-23T13:32:38;17.00;69.80
38910;DHT22;24676;51.360;12.354;2023-03-23T13:35:24;16.90;70.30
38910;DHT22;24676;51.360;12.354;2023-03-23T13:38:26;16.80;71.10
38910;DHT22;24676;51.360;12.354;2023-03-23T13:41:13;16.60;73.00
38910;DHT22;24676;51.360;12.354;2023-03-23T13:44:17;16.40;72.30
38910;DHT22;24676;51.360;12.354;2023-03-23T13:53:13;16.00;78.30
38910;DHT22;24676;51.360;12.354;2023-03-23T13:56:17;16.00;81.10
38910;DHT22;24676;51.360;12.354;2023-03-23T13:59:27;16.10;81.70
38910;DHT22;24676;51.360;12.354;2023-03-23T14:02:33;16.10;82.30
38910;DHT22;24676;51.360;12.354;2023-03-23T14:11:28;15.90;85.80
38910;DHT22;24676;51.360;12.354;2023-03-23T14:14:50;15.90;86.70
38910;DHT22;24676;51.360;12.354;2023-03-23T14:17:42;15.90;89.60
38910;DHT22;24676;51.360;12.354;2023-03-23T14:20:33;15.90;88.80
38910;DHT22;24676;51.360;12.354;2023-03-23T14:23:19;16.00;90.40
38910;DHT22;24676;51.360;12.354;2023-03-23T14:26:12;16.00;89.40
38910;DHT22;24676;51.360;12.354;2023-03-23T14:28:59;16.10;90.20
38910;DHT22;24676;51.360;12.354;2023-03-23T14:31:43;16.10;90.00
38910;DHT22;24676;51.360;12.354;2023-03-23T14:34:30;16.00;90.20
38910;DHT22;24676;51.360;12.354;2023-03-23T14:37:15;16.00;90.60
38910;DHT22;24676;51.360;12.354;2023-03-23T14:40:00;16.00;90.30
38910;DHT22;24676;51.360;12.354;2023-03-23T14:42:47;16.10;89.70
38910;DHT22;24676;51.360;12.354;2023-03-23T14:45:39;16.10;90.10
38910;DHT22;24676;51.360;12.354;2023-03-23T14:48:23;16.10;89.20
38910;DHT22;24676;51.360;12.354;2023-03-23T14:51:18;16.10;90.60
38910;DHT22;24676;51.360;12.354;2023-03-23T14:54:08;16.00;90.70
38910;DHT22;24676;51.360;12.354;2023-03-23T14:56:53;15.80;91.10
38910;DHT22;24676;51.360;12.354;2023-03-23T14:59:40;15.70;93.20
38910;DHT22;24676;51.360;12.354;2023-03-23T15:02:32;15.60;93.70
38910;DHT22;24676;51.360;12.354;2023-03-23T15:05:22;15.60;95.00
38910;DHT22;24676;51.360;12.354;2023-03-23T15:08:20;15.50;96.60
38910;DHT22;24676;51.360;12.354;2023-03-23T15:13:53;15.40;98.60
38910;DHT22;24676;51.360;12.354;2023-03-23T15:16:49;15.30;99.80
38910;DHT22;24676;51.360;12.354;2023-03-23T15:19:41;15.30;99.90
38910;DHT22;24676;51.360;12.354;2023-03-23T15:25:17;15.30;99.90
38910;DHT22;24676;51.360;12.354;2023-03-23T15:30:52;15.20;99.90
38910;DHT22;24676;51.360;12.354;2023-03-23T15:33:38;15.20;99.90
38910;DHT22;24676;51.360;12.354;2023-03-23T15:36:23;15.20;99.90
38910;DHT22;24676;51.360;12.354;2023-03-23T15:39:11;15.20;99.90
38910;DHT22;24676;51.360;12.354;2023-03-23T15:41:57;15.20;99.90
38910;DHT22;24676;51.360;12.354;2023-03-23T15:44:42;15.20;99.90
38910;DHT22;24676;51.360;12.354;2023-03-23T15:47:44;15.10;99.90
38910;DHT22;24676;51.360;12.354;2023-03-23T15:53:27;15.20;99.90
38910;DHT22;24676;51.360;12.354;2023-03-23T15:56:13;15.20;99.90
38910;DHT22;24676;51.360;12.354;2023-03-23T15:58:57;15.30;99.90
38910;DHT22;24676;51.360;12.354;2023-03-23T16:01:43;15.30;99.90
38910;DHT22;24676;51.360;12.354;2023-03-23T16:04:28;15.40;99.90
38910;DHT22;24676;51.360;12.354;2023-03-23T16:07:13;15.30;99.90
38910;DHT22;24676;51.360;12.354;2023-03-23T16:09:58;15.30;99.90
38910;DHT22;24676;51.360;12.354;2023-03-23T16:12:42;15.30;99.90
38910;DHT22;24676;51.360;12.354;2023-03-23T16:15:26;15.30;99.90
38910;DHT22;24676;51.360;12.354;2023-03-23T16:18:17;15.30;99.90
38910;DHT22;24676;51.360;12.354;2023-03-23T16:21:02;15.30;99.90
38910;DHT22;24676;51.360;12.354;2023-03-23T16:23:46;15.30;99.90
38910;DHT22;24676;51.360;12.354;2023-03-23T16:26:31;15.20;99.90
38910;DHT22;24676;51.360;12.354;2023-03-23T16:29:16;15.20;99.90
38910;DHT22;24676;51.360;12.354;2023-03-23T16:32:00;15.10;99.90
38910;DHT22;24676;51.360;12.354;2023-03-23T16:34:45;15.00;99.90
38910;DHT22;24676;51.360;12.354;2023-03-23T16:37:29;15.00;99.90
38910;DHT22;24676;51.360;12.354;2023-03-23T16:40:17;15.00;99.90
38910;DHT22;24676;51.360;12.354;2023-03-23T16:43:02;14.90;99.90
38910;DHT22;24676;51.360;12.354;2023-03-23T16:45:46;14.90;99.90
38910;DHT22;24676;51.360;12.354;2023-03-23T16:48:30;14.90;99.90
38910;DHT22;24676;51.360;12.354;2023-03-23T16:51:14;14.90;99.90
38910;DHT22;24676;51.360;12.354;2023-03-23T16:53:59;14.90;99.90
38910;DHT22;24676;51.360;12.354;2023-03-23T16:56:43;14.80;99.90
38910;DHT22;24676;51.360;12.354;2023-03-23T16:59:29;14.80;99.90
38910;DHT22;24676;51.360;12.354;2023-03-23T17:02:14;14.80;99.90
38910;DHT22;24676;51.360;12.354;2023-03-23T17:04:58;14.80;99.90
38910;DHT22;24676;51.360;12.354;2023-03-23T17:07:44;14.80;99.90
38910;DHT22;24676;51.360;12.354;2023-03-23T17:10:29;14.70;99.90
38910;DHT22;24676;51.360;12.354;2023-03-23T17:13:14;14.70;99.90
38910;DHT22;24676;51.360;12.354;2023-03-23T17:15:58;14.70;99.90
38910;DHT22;24676;51.360;12.354;2023-03-23T17:18:43;14.70;99.90
38910;DHT22;24676;51.360;12.354;2023-03-23T17:21:27;14.60;99.90
38910;DHT22;24676;51.360;12.354;2023-03-23T17:24:11;14.40;99.90
38910;DHT22;24676;51.360;12.354;2023-03-23T17:26:55;14.30;99.90
38910;DHT22;24676;51.360;12.354;2023-03-23T17:29:40;14.20;99.90
38910;DHT22;24676;51.360;12.354;2023-03-23T17:32:24;14.10;99.90
38910;DHT22;24676;51.360;12.354;2023-03-23T17:35:09;14.00;99.90
38910;DHT22;24676;51.360;12.354;2023-03-23T17:37:53;13.90;99.90
38910;DHT22;24676;51.360;12.354;2023-03-23T17:40:37;13.80;99.90
38910;DHT22;24676;51.360;12.354;2023-03-23T17:43:21;13.70;99.90
38910;DHT22;24676;51.360;12.354;2023-03-23T17:46:07;13.70;99.90
38910;DHT22;24676;51.360;12.354;2023-03-23T17:48:52;13.60;99.90
38910;DHT22;24676;51.360;12.354;2023-03-23T17:51:36;13.60;99.90
38910;DHT22;24676;51.360;12.354;2023-03-23T17:54:21;13.50;99.90
38910;DHT22;24676;51.360;12.354;2023-03-23T17:57:05;13.50;99.90
38910;DHT22;24676;51.360;12.354;2023-03-23T17:59:49;13.40;99.90
38910;DHT22;24676;51.360;12.354;2023-03-23T18:02:37;13.40;99.90
38910;DHT22;24676;51.360;12.354;2023-03-23T18:05:22;13.40;99.90
38910;DHT22;24676;51.360;12.354;2023-03-23T18:08:08;13.30;99.90
38910;DHT22;24676;51.360;12.354;2023-03-23T18:10:54;13.30;99.90
38910;DHT22;24676;51.360;12.354;2023-03-23T18:13:39;13.20;99.90
38910;DHT22;24676;51.360;12.354;2023-03-23T18:16:24;13.30;99.90
38910;DHT22;24676;51.360;12.354;2023-03-23T18:19:08;13.20;99.90
38910;DHT22;24676;51.360;12.354;2023-03-23T18:21:53;13.20;99.90
38910;DHT22;24676;51.360;12.354;2023-03-23T18:24:38;13.10;99.90
38910;DHT22;24676;51.360;12.354;2023-03-23T18:27:22;13.10;99.90
38910;DHT22;24676;51.360;12.354;2023-03-23T18:30:07;13.10;99.90
38910;DHT22;24676;51.360;12.354;2023-03-23T18:32:52;13.00;99.90
38910;DHT22;24676;51.360;12.354;2023-03-23T18:35:36;12.90;99.90
38910;DHT22;24676;51.360;12.354;2023-03-23T18:38:21;12.90;99.90
38910;DHT22;24676;51.360;12.354;2023-03-23T18:41:06;12.90;99.90
38910;DHT22;24676;51.360;12.354;2023-03-23T18:43:51;12.90;99.90
38910;DHT22;24676;51.360;12.354;2023-03-23T18:46:35;12.90;99.90
38910;DHT22;24676;51.360;12.354;2023-03-23T18:49:20;12.90;99.90